createdAt,value
2018-11-21T00:01:44.869Z,34.20
2018-11-21T00:04:13.334Z,36.23
2018-11-21T00:06:41.349Z,36.97
2018-11-21T00:09:10.700Z,33.77
2018-11-21T00:11:38.686Z,38.13
2018-11-21T00:14:07.627Z,32.43
2018-11-21T00:16:37.958Z,29.57
2018-11-21T00:19:06.479Z,29.47
2018-11-21T00:21:34.932Z,31.87
2018-11-21T00:24:03.156Z,30.43
2018-11-21T00:26:31.519Z,29.83
2018-11-21T00:29:00.178Z,32.30
2018-11-21T00:31:28.086Z,30.30
2018-11-21T00:33:56.355Z,29.00
2018-11-21T00:36:24.548Z,31.47
2018-11-21T00:38:52.790Z,28.87
2018-11-21T00:41:21.128Z,30.73
2018-11-21T00:43:49.820Z,33.33
2018-11-21T00:46:17.784Z,32.10
2018-11-21T00:48:46.418Z,28.97
2018-11-21T00:51:14.643Z,30.80
2018-11-21T00:53:42.846Z,35.37
2018-11-21T00:56:11.109Z,31.10
2018-11-21T00:58:39.712Z,31.47
2018-11-21T01:01:08.280Z,29.20
2018-11-21T01:03:36.572Z,36.47
2018-11-21T01:06:07.566Z,28.70
2018-11-21T01:08:35.826Z,27.13
2018-11-21T01:11:06.463Z,30.97
2018-11-21T01:13:34.914Z,29.07
2018-11-21T01:16:05.280Z,30.53
2018-11-21T01:18:33.876Z,31.43
2018-11-21T01:21:01.959Z,28.00
2018-11-21T01:23:30.222Z,26.63
2018-11-21T01:25:58.537Z,29.77
2018-11-21T01:28:27.105Z,30.80
2018-11-21T01:30:55.379Z,31.03
2018-11-21T01:33:23.891Z,29.03
2018-11-21T01:35:52.109Z,30.80
2018-11-21T01:38:20.423Z,32.63
2018-11-21T01:40:48.724Z,30.10
2018-11-21T01:43:16.960Z,34.00
2018-11-21T01:45:45.258Z,28.60
2018-11-21T01:48:13.942Z,28.20
2018-11-21T01:50:42.297Z,31.73
2018-11-21T01:53:10.941Z,29.40
2018-11-21T01:55:39.227Z,36.87
2018-11-21T01:58:07.875Z,30.00
2018-11-21T02:00:36.640Z,31.00
2018-11-21T02:03:04.572Z,27.90
2018-11-21T02:05:33.328Z,28.63
2018-11-21T02:08:01.787Z,29.10
2018-11-21T02:10:30.074Z,31.17
2018-11-21T02:12:58.738Z,33.03
2018-11-21T02:15:27.416Z,28.80
2018-11-21T02:17:55.712Z,33.53
2018-11-21T02:20:26.468Z,33.77
2018-11-21T02:22:54.745Z,33.67
2018-11-21T02:25:23.408Z,32.40
2018-11-21T02:27:51.562Z,36.70
2018-11-21T02:30:19.990Z,37.50
2018-11-21T02:32:48.334Z,38.83
2018-11-21T02:35:18.987Z,38.73
2018-11-21T02:37:47.665Z,29.63
2018-11-21T02:40:15.897Z,39.90
2018-11-21T02:42:44.111Z,35.40
2018-11-21T02:45:12.495Z,33.40
2018-11-21T02:47:42.311Z,30.20
2018-11-21T02:50:10.718Z,29.73
2018-11-21T02:52:39.221Z,35.57
2018-11-21T02:55:07.840Z,36.50
2018-11-21T02:57:36.610Z,34.23
2018-11-21T03:00:12.021Z,34.63
2018-11-21T03:02:40.268Z,27.03
2018-11-21T03:05:08.577Z,32.10
2018-11-21T03:07:37.179Z,30.83
2018-11-21T03:10:06.582Z,30.97
2018-11-21T03:12:35.251Z,28.40
2018-11-21T03:15:03.308Z,31.77
2018-11-21T03:17:31.795Z,35.13
2018-11-21T03:20:00.000Z,33.07
2018-11-21T03:22:28.598Z,34.23
2018-11-21T03:24:57.028Z,33.87
2018-11-21T03:27:25.307Z,30.43
2018-11-21T03:29:53.524Z,33.23
2018-11-21T03:32:21.816Z,35.57
2018-11-21T03:34:50.517Z,33.87
2018-11-21T03:37:18.810Z,30.40
2018-11-21T03:39:47.305Z,30.47
2018-11-21T03:42:15.773Z,31.00
2018-11-21T03:44:43.853Z,28.40
2018-11-21T03:47:12.704Z,33.40
2018-11-21T03:49:41.442Z,29.70
2018-11-21T03:52:09.933Z,30.30
2018-11-21T03:54:38.612Z,26.67
2018-11-21T03:57:07.037Z,27.37
2018-11-21T03:59:35.477Z,31.93
2018-11-21T04:02:03.747Z,34.80
2018-11-21T04:04:37.035Z,29.73
2018-11-21T04:07:05.801Z,31.27
2018-11-21T04:09:34.413Z,28.70
2018-11-21T04:12:03.107Z,28.77
2018-11-21T04:14:31.853Z,31.30
2018-11-21T04:17:00.442Z,28.00
2018-11-21T04:19:29.100Z,27.40
2018-11-21T04:21:57.094Z,29.83
2018-11-21T04:24:25.689Z,27.83
2018-11-21T04:26:53.942Z,29.60
2018-11-21T04:29:22.185Z,28.63
2018-11-21T04:31:50.647Z,29.73
2018-11-21T04:34:19.603Z,27.13
2018-11-21T04:36:47.850Z,25.00
2018-11-21T04:39:16.305Z,26.33
2018-11-21T04:41:44.787Z,28.83
2018-11-21T04:44:14.753Z,23.67
2018-11-21T04:46:43.045Z,25.27
2018-11-21T04:49:11.316Z,28.73
2018-11-21T04:51:40.407Z,31.73
2018-11-21T04:54:09.023Z,32.77
2018-11-21T04:56:37.233Z,27.13
2018-11-21T04:59:05.939Z,25.97
2018-11-21T05:01:34.270Z,24.23
2018-11-21T05:04:02.944Z,25.27
2018-11-21T05:06:31.538Z,31.60
2018-11-21T05:08:59.958Z,39.90
2018-11-21T05:11:28.189Z,39.63
2018-11-21T05:13:56.743Z,34.30
2018-11-21T05:16:25.163Z,27.90
2018-11-21T05:18:53.576Z,29.50
2018-11-21T05:21:21.687Z,31.90
2018-11-21T05:23:49.943Z,33.50
2018-11-21T05:26:18.181Z,31.97
2018-11-21T05:28:46.508Z,43.43
2018-11-21T05:31:14.993Z,38.33
2018-11-21T05:33:43.670Z,35.47
2018-11-21T05:36:11.751Z,29.67
2018-11-21T05:38:40.696Z,39.37
2018-11-21T05:41:09.374Z,41.33
2018-11-21T05:43:38.032Z,39.30
2018-11-21T05:46:06.237Z,38.33
2018-11-21T05:48:34.544Z,34.23
2018-11-21T05:51:03.215Z,29.73
2018-11-21T05:53:31.323Z,30.53
2018-11-21T05:55:59.646Z,43.17
2018-11-21T05:58:27.888Z,36.90
2018-11-21T06:00:56.683Z,32.23
2018-11-21T06:03:25.057Z,39.30
2018-11-21T06:05:53.474Z,35.47
2018-11-21T06:08:21.914Z,33.33
2018-11-21T06:10:50.160Z,38.37
2018-11-21T06:13:18.361Z,35.40
2018-11-21T06:15:46.730Z,48.50
2018-11-21T06:18:14.881Z,93.30
2018-11-21T06:20:43.624Z,71.93
2018-11-21T06:23:11.853Z,66.53
2018-11-21T06:25:40.218Z,58.80
2018-11-21T06:28:08.615Z,68.47
2018-11-21T06:30:37.115Z,58.03
2018-11-21T06:33:06.013Z,50.90
2018-11-21T06:35:34.222Z,56.63
2018-11-21T06:38:02.401Z,62.27
2018-11-21T06:40:30.622Z,60.93
2018-11-21T06:42:59.611Z,50.57
2018-11-21T06:45:28.815Z,59.50
2018-11-21T06:47:57.244Z,54.20
2018-11-21T06:50:25.592Z,55.73
2018-11-21T06:52:55.147Z,40.67
2018-11-21T06:55:23.390Z,46.83
2018-11-21T06:57:51.640Z,60.97
2018-11-21T07:00:19.900Z,48.37
2018-11-21T07:02:48.595Z,47.73
2018-11-21T07:05:17.317Z,41.70
2018-11-21T07:07:46.278Z,51.33
2018-11-21T07:10:15.716Z,38.43
2018-11-21T07:12:45.235Z,46.70
2018-11-21T07:15:13.989Z,46.63
2018-11-21T07:17:42.680Z,38.80
2018-11-21T07:20:12.267Z,42.83
2018-11-21T07:22:40.934Z,41.37
2018-11-21T07:25:12.549Z,33.30
2018-11-21T07:27:40.957Z,40.27
2018-11-21T07:30:11.560Z,42.27
2018-11-21T07:32:39.963Z,87.73
2018-11-21T07:35:08.493Z,92.30
2018-11-21T07:37:37.345Z,82.67
2018-11-21T07:40:07.454Z,72.83
2018-11-21T07:42:35.847Z,71.43
2018-11-21T07:45:04.044Z,62.87
2018-11-21T07:47:32.440Z,47.20
2018-11-21T07:50:00.823Z,42.63
2018-11-21T07:52:29.058Z,41.60
2018-11-21T07:54:57.276Z,44.37
2018-11-21T07:57:31.443Z,47.30
2018-11-21T08:01:05.731Z,48.63
2018-11-21T08:03:56.636Z,45.93
2018-11-21T08:06:37.511Z,37.77
2018-11-21T08:09:26.394Z,42.80
2018-11-21T08:12:13.797Z,44.33
2018-11-21T08:15:19.405Z,52.43
2018-11-21T08:18:00.722Z,132.60
2018-11-21T08:20:40.715Z,52.00
2018-11-21T08:23:27.293Z,45.83
2018-11-21T08:26:09.609Z,43.53
2018-11-21T08:28:38.124Z,43.37
2018-11-21T08:31:06.482Z,46.70
2018-11-21T08:33:34.705Z,41.80
2018-11-21T08:36:02.922Z,41.77
2018-11-21T08:38:31.249Z,44.97
2018-11-21T08:40:59.726Z,45.93
2018-11-21T08:43:28.445Z,39.27
2018-11-21T08:45:56.839Z,40.97
2018-11-21T08:48:25.285Z,44.60
2018-11-21T08:50:53.560Z,44.10
2018-11-21T08:53:21.818Z,43.03
2018-11-21T08:55:50.025Z,42.90
2018-11-21T08:58:18.259Z,43.20
2018-11-21T09:00:47.181Z,61.87
2018-11-21T09:03:15.502Z,48.70
2018-11-21T09:05:43.977Z,42.37
2018-11-21T09:08:12.205Z,43.57
2018-11-21T09:10:41.024Z,43.17
2018-11-21T09:13:09.302Z,40.67
2018-11-21T09:15:37.545Z,39.07
2018-11-21T09:18:05.757Z,39.73
2018-11-21T09:20:33.960Z,39.53
2018-11-21T09:23:02.154Z,37.53
2018-11-21T09:25:30.504Z,44.73
2018-11-21T09:27:59.085Z,39.30
2018-11-21T09:30:27.362Z,38.47
2018-11-21T09:32:56.937Z,32.27
2018-11-21T09:35:25.183Z,37.37
2018-11-21T09:37:54.013Z,38.10
2018-11-21T09:40:23.195Z,43.23
2018-11-21T09:42:53.010Z,36.13
2018-11-21T09:45:22.094Z,32.50
2018-11-21T09:47:50.320Z,35.73
2018-11-21T09:50:20.597Z,38.67
2018-11-21T09:52:50.415Z,34.80
2018-11-21T09:55:17.461Z,34.63
2018-11-21T09:57:45.738Z,32.10
2018-11-21T10:00:51.994Z,33.03
2018-11-21T10:03:22.212Z,37.60
2018-11-21T10:05:53.486Z,38.67
2018-11-21T10:08:50.019Z,37.53
2018-11-21T10:11:18.484Z,36.30
2018-11-21T10:13:46.722Z,37.33
2018-11-21T10:16:15.116Z,36.47
2018-11-21T10:18:44.637Z,35.87
2018-11-21T10:21:17.019Z,38.37
2018-11-21T10:23:45.310Z,31.97
2018-11-21T10:26:13.621Z,37.93
2018-11-21T10:28:42.667Z,36.33
2018-11-21T10:31:10.861Z,34.13
2018-11-21T10:33:39.041Z,34.67
2018-11-21T10:36:07.548Z,39.00
2018-11-21T10:38:35.759Z,38.97
2018-11-21T10:41:04.271Z,38.63
2018-11-21T10:43:33.417Z,39.47
2018-11-21T10:46:01.678Z,41.93
2018-11-21T10:48:29.895Z,34.33
2018-11-21T10:50:58.136Z,38.10
2018-11-21T10:53:26.667Z,30.40
2018-11-21T10:55:54.944Z,32.83
2018-11-21T10:58:23.186Z,41.33
2018-11-21T11:01:09.052Z,39.77
2018-11-21T11:03:39.950Z,43.77
2018-11-21T11:06:22.322Z,41.23
2018-11-21T11:09:08.600Z,43.53
2018-11-21T11:11:54.755Z,40.30
2018-11-21T11:14:47.715Z,39.60
2018-11-21T11:17:39.840Z,41.63
2018-11-21T11:20:27.693Z,39.33
2018-11-21T11:23:15.092Z,56.17
2018-11-21T11:25:57.440Z,42.57
2018-11-21T11:28:44.865Z,33.70
2018-11-21T11:31:29.441Z,38.60
2018-11-21T11:34:18.444Z,35.97
2018-11-21T11:37:00.152Z,31.27
2018-11-21T11:39:47.777Z,41.07
2018-11-21T11:42:33.655Z,34.90
2018-11-21T11:45:19.931Z,39.77
2018-11-21T11:48:06.063Z,38.20
2018-11-21T11:50:43.033Z,38.53
2018-11-21T11:53:30.500Z,35.30
2018-11-21T11:56:17.893Z,38.67
2018-11-21T11:59:00.792Z,40.00
2018-11-21T12:01:50.868Z,36.13
2018-11-21T12:04:36.755Z,34.30
2018-11-21T12:07:24.033Z,37.03
2018-11-21T12:10:08.067Z,40.07
2018-11-21T12:13:04.447Z,62.60
2018-11-21T12:15:50.611Z,38.90
2018-11-21T12:18:40.582Z,44.67
2018-11-21T12:21:30.622Z,48.63
2018-11-21T12:24:23.539Z,48.33
2018-11-21T12:27:09.743Z,42.83
2018-11-21T12:29:56.073Z,37.63
2018-11-21T12:32:39.419Z,36.87
2018-11-21T12:35:25.981Z,35.80
2018-11-21T12:38:28.560Z,38.47
2018-11-21T12:41:14.932Z,42.67
2018-11-21T12:44:01.086Z,37.40
2018-11-21T12:46:49.305Z,41.50
2018-11-21T12:49:42.731Z,40.30
2018-11-21T12:52:32.814Z,37.73
2018-11-21T12:55:20.921Z,37.20
2018-11-21T12:58:10.991Z,34.67
2018-11-21T13:00:57.529Z,42.60
2018-11-21T13:03:43.524Z,42.70
2018-11-21T13:06:31.100Z,34.73
2018-11-21T13:09:24.316Z,39.87
2018-11-21T13:12:08.683Z,36.57
2018-11-21T13:14:44.620Z,44.23
2018-11-21T13:17:35.010Z,35.80
2018-11-21T13:20:21.258Z,39.73
2018-11-21T13:22:55.452Z,39.50
2018-11-21T13:25:41.455Z,38.07
2018-11-21T13:28:23.344Z,35.67
2018-11-21T13:31:10.746Z,37.47
2018-11-21T13:34:01.512Z,43.37
2018-11-21T13:36:45.566Z,35.13
2018-11-21T13:39:43.075Z,35.80
2018-11-21T13:42:30.662Z,46.87
2018-11-21T13:45:14.606Z,42.80
2018-11-21T13:48:05.632Z,40.67
2018-11-21T13:50:52.042Z,44.53
2018-11-21T13:53:38.336Z,39.80
2018-11-21T13:56:06.716Z,37.57
2018-11-21T13:58:34.984Z,39.97
2018-11-21T14:01:03.210Z,42.83
2018-11-21T14:03:31.738Z,39.63
2018-11-21T14:06:00.305Z,36.23
2018-11-21T14:08:28.708Z,35.03
2018-11-21T14:10:56.953Z,36.97
2018-11-21T14:13:25.180Z,39.57
2018-11-21T14:15:53.407Z,35.83
2018-11-21T14:18:21.628Z,35.47
2018-11-21T14:20:49.975Z,36.67
2018-11-21T14:23:18.336Z,32.73
2018-11-21T14:25:46.641Z,38.87
2018-11-21T14:28:14.878Z,33.40
2018-11-21T14:30:43.297Z,33.60
2018-11-21T14:33:11.700Z,39.10
2018-11-21T14:35:39.896Z,39.90
2018-11-21T14:38:08.121Z,37.20
2018-11-21T14:40:36.354Z,37.57
2018-11-21T14:43:04.726Z,38.07
2018-11-21T14:45:32.964Z,39.37
2018-11-21T14:48:01.223Z,37.60
2018-11-21T14:50:39.052Z,33.60
2018-11-21T14:53:02.593Z,42.20
2018-11-21T14:55:30.841Z,43.07
2018-11-21T14:57:59.242Z,39.40
2018-11-21T15:00:27.444Z,41.37
2018-11-21T15:02:55.695Z,43.70
2018-11-21T15:05:23.906Z,43.70
2018-11-21T15:07:52.105Z,49.17
2018-11-21T15:10:20.286Z,44.67
2018-11-21T15:12:48.492Z,41.83
2018-11-21T15:15:18.349Z,52.13
2018-11-21T15:17:46.667Z,47.30
2018-11-21T15:20:16.643Z,47.53
2018-11-21T15:22:45.197Z,44.60
2018-11-21T15:25:15.203Z,44.47
2018-11-21T15:27:43.540Z,41.97
2018-11-21T15:30:17.732Z,49.03
2018-11-21T15:32:46.017Z,41.50
2018-11-21T15:35:14.336Z,44.13
2018-11-21T15:37:43.255Z,45.50
2018-11-21T15:40:13.797Z,43.70
2018-11-21T15:42:42.139Z,46.47
2018-11-21T15:45:12.909Z,56.80
2018-11-21T15:47:41.471Z,46.27
2018-11-21T15:50:11.755Z,42.93
2018-11-21T15:52:40.581Z,42.97
2018-11-21T15:55:10.153Z,69.60
2018-11-21T15:57:38.685Z,51.33
2018-11-21T16:00:11.620Z,57.33
2018-11-21T16:02:40.958Z,54.03
2018-11-21T16:05:09.245Z,67.03
2018-11-21T16:07:38.075Z,51.93
2018-11-21T16:10:10.093Z,50.77
2018-11-21T16:12:37.121Z,45.87
2018-11-21T16:15:08.801Z,43.37
2018-11-21T16:17:39.362Z,47.40
2018-11-21T16:20:11.250Z,49.03
2018-11-21T16:22:39.605Z,44.33
2018-11-21T16:25:09.796Z,47.27
2018-11-21T16:27:38.531Z,49.27
2018-11-21T16:30:09.931Z,48.10
2018-11-21T16:32:38.302Z,48.23
2018-11-21T16:35:08.496Z,44.67
2018-11-21T16:37:35.690Z,41.90
2018-11-21T16:40:05.166Z,46.03
2018-11-21T16:42:33.784Z,44.40
2018-11-21T16:45:02.372Z,52.43
2018-11-21T16:47:30.912Z,43.00
2018-11-21T16:49:59.137Z,41.27
2018-11-21T16:52:27.350Z,45.10
2018-11-21T16:54:55.760Z,43.67
2018-11-21T16:57:24.147Z,44.00
2018-11-21T16:59:52.405Z,45.00
2018-11-21T17:02:20.637Z,42.30
2018-11-21T17:04:48.839Z,41.07
2018-11-21T17:07:17.360Z,44.40
2018-11-21T17:09:46.162Z,46.20
2018-11-21T17:12:15.118Z,42.30
2018-11-21T17:14:44.008Z,44.13
2018-11-21T17:17:12.923Z,45.70
2018-11-21T17:19:41.496Z,38.43
2018-11-21T17:22:09.756Z,45.93
2018-11-21T17:24:38.398Z,42.83
2018-11-21T17:27:06.979Z,47.70
2018-11-21T17:29:35.451Z,41.47
2018-11-21T17:32:04.325Z,47.27
2018-11-21T17:34:32.910Z,53.27
2018-11-21T17:37:01.641Z,50.70
2018-11-21T17:39:29.795Z,43.23
2018-11-21T17:41:58.100Z,45.93
2018-11-21T17:44:26.535Z,57.70
2018-11-21T17:46:55.152Z,51.47
2018-11-21T17:49:23.616Z,44.67
2018-11-21T17:51:54.295Z,46.77
2018-11-21T17:54:22.719Z,41.27
2018-11-21T17:56:50.994Z,41.33
2018-11-21T17:59:19.479Z,46.53
2018-11-21T18:01:48.068Z,43.00
2018-11-21T18:04:16.334Z,42.90
2018-11-21T18:06:44.617Z,45.63
2018-11-21T18:09:13.642Z,46.50
2018-11-21T18:11:42.184Z,45.27
2018-11-21T18:14:10.412Z,44.80
2018-11-21T18:16:38.680Z,41.37
2018-11-21T18:19:07.183Z,42.57
2018-11-21T18:21:35.397Z,41.70
2018-11-21T18:24:03.732Z,41.97
2018-11-21T18:26:32.209Z,48.67
2018-11-21T18:29:00.473Z,43.03
2018-11-21T18:31:29.284Z,47.20
2018-11-21T18:33:57.669Z,39.37
2018-11-21T18:36:25.929Z,45.90
2018-11-21T18:38:54.261Z,43.10
2018-11-21T18:41:22.485Z,45.40
2018-11-21T18:43:51.026Z,46.73
2018-11-21T18:46:19.767Z,41.67
2018-11-21T18:48:48.448Z,40.40
2018-11-21T18:51:16.871Z,49.20
2018-11-21T18:53:45.205Z,39.53
2018-11-21T18:56:37.784Z,45.87
2018-11-21T18:59:33.343Z,45.87
2018-11-21T19:02:01.480Z,41.57
2018-11-21T19:04:29.851Z,43.47
2018-11-21T19:06:58.030Z,42.27
2018-11-21T19:09:26.248Z,42.63
2018-11-21T19:11:54.571Z,44.00
2018-11-21T19:14:24.469Z,43.60
2018-11-21T19:16:53.044Z,43.87
2018-11-21T19:19:21.423Z,47.80
2018-11-21T19:21:49.907Z,41.27
2018-11-21T19:24:18.400Z,47.67
2018-11-21T19:26:46.884Z,62.80
2018-11-21T19:29:15.147Z,63.00
2018-11-21T19:31:43.613Z,51.53
2018-11-21T19:34:12.411Z,45.33
2018-11-21T19:36:40.826Z,45.73
2018-11-21T19:39:14.639Z,41.63
2018-11-21T19:41:43.059Z,52.70
2018-11-21T19:44:11.770Z,52.90
2018-11-21T19:46:40.465Z,47.17
2018-11-21T19:49:08.843Z,43.23
2018-11-21T19:51:44.456Z,44.30
2018-11-21T19:54:12.627Z,43.47
2018-11-21T19:56:41.026Z,42.77
2018-11-21T19:59:09.420Z,40.57
2018-11-21T20:01:37.908Z,46.43
2018-11-21T20:04:06.125Z,47.17
2018-11-21T20:06:34.606Z,47.83
2018-11-21T20:09:02.846Z,38.43
2018-11-21T20:11:31.215Z,40.20
2018-11-21T20:13:59.721Z,41.60
2018-11-21T20:16:28.231Z,39.97
2018-11-21T20:18:56.686Z,46.33
2018-11-21T20:21:27.389Z,56.47
2018-11-21T20:23:55.892Z,108.97
2018-11-21T20:26:24.264Z,32.97
2018-11-21T20:28:52.807Z,39.87
2018-11-21T20:31:21.284Z,22.73
2018-11-21T20:33:50.180Z,17.23
2018-11-21T20:36:18.387Z,20.97
2018-11-21T20:38:46.593Z,21.90
2018-11-21T20:41:14.882Z,17.03
2018-11-21T20:43:43.546Z,20.43
2018-11-21T20:46:12.069Z,20.70
2018-11-21T20:48:41.094Z,18.60
2018-11-21T20:51:09.341Z,14.90
2018-11-21T20:53:38.410Z,18.20
2018-11-21T20:56:06.769Z,19.77
2018-11-21T20:58:34.982Z,21.10
2018-11-21T21:01:03.552Z,19.97
2018-11-21T21:03:32.208Z,21.40
2018-11-21T21:06:02.123Z,19.93
2018-11-21T21:08:30.583Z,19.60
2018-11-21T21:10:59.051Z,21.77
2018-11-21T21:13:27.854Z,18.87
2018-11-21T21:15:56.572Z,17.83
2018-11-21T21:18:25.513Z,16.67
2018-11-21T21:20:54.542Z,20.17
2018-11-21T21:23:23.548Z,17.20
2018-11-21T21:25:52.155Z,15.57
2018-11-21T21:28:20.682Z,16.80
2018-11-21T21:30:49.278Z,19.53
2018-11-21T21:33:17.865Z,13.87
2018-11-21T21:35:46.656Z,14.50
2018-11-21T21:38:14.940Z,17.77
2018-11-21T21:40:43.396Z,17.23
2018-11-21T21:43:12.059Z,17.07
2018-11-21T21:45:41.003Z,19.53
2018-11-21T21:48:09.234Z,18.73
2018-11-21T21:50:38.081Z,18.63
2018-11-21T21:53:06.291Z,14.90
2018-11-21T21:55:34.610Z,19.50
2018-11-21T21:58:03.699Z,16.87
2018-11-21T22:00:32.205Z,14.73
2018-11-21T22:03:01.313Z,14.60
2018-11-21T22:05:29.930Z,13.03
2018-11-21T22:07:58.470Z,13.13
2018-11-21T22:10:28.644Z,12.27
2018-11-21T22:12:58.879Z,15.00
2018-11-21T22:15:28.339Z,15.40
2018-11-21T22:17:58.356Z,15.63
2018-11-21T22:20:26.551Z,13.90
2018-11-21T22:22:56.843Z,15.67
2018-11-21T22:25:25.672Z,16.00
2018-11-21T22:27:54.246Z,16.30
2018-11-21T22:30:23.752Z,16.90
2018-11-21T22:32:55.478Z,15.97
2018-11-21T22:35:25.742Z,14.10
2018-11-21T22:37:56.441Z,14.27
2018-11-21T22:40:24.771Z,13.80
2018-11-21T22:42:53.861Z,15.23
2018-11-21T22:45:22.844Z,14.73
2018-11-21T22:47:51.523Z,15.33
2018-11-21T22:50:24.234Z,13.80
2018-11-21T22:52:53.043Z,15.70
2018-11-21T22:55:22.230Z,15.37
2018-11-21T22:57:51.683Z,13.60
2018-11-21T23:00:39.443Z,14.53
2018-11-21T23:03:08.079Z,15.00
2018-11-21T23:05:37.700Z,16.47
2018-11-21T23:08:05.765Z,15.97
2018-11-21T23:10:34.653Z,16.80
2018-11-21T23:13:03.305Z,16.40
2018-11-21T23:15:31.526Z,17.70
2018-11-21T23:18:00.105Z,16.57
2018-11-21T23:20:28.964Z,15.53
2018-11-21T23:22:57.523Z,15.83
2018-11-21T23:25:26.028Z,14.43
2018-11-21T23:27:54.954Z,14.67
2018-11-21T23:30:23.931Z,13.40
2018-11-21T23:32:52.241Z,11.97
2018-11-21T23:35:21.338Z,13.57
2018-11-21T23:37:49.961Z,12.80
2018-11-21T23:40:18.557Z,12.90
2018-11-21T23:42:48.776Z,13.63
2018-11-21T23:45:20.121Z,15.53
2018-11-21T23:47:48.889Z,16.40
2018-11-21T23:50:18.681Z,14.57
2018-11-21T23:52:47.345Z,12.80
2018-11-21T23:55:18.058Z,12.67
2018-11-21T23:57:46.531Z,14.10
